Time;durP1;ratioP1;P1;durP2;ratioP2;P2;SDS_P1;SDS_P2;PMS_P1;PMS_P2;Temp;Humidity;BMP_temperature;BMP_pressure;BME280_temperature;BME280_humidity;BME280_pressure;Samples;Min_cycle;Max_cycle;Signal;HPM_P1;HPM_P2
2022/09/06 00:00:35;;;;;;;;;;;;;;;23.85;42.86;100685.97;4968705;28;6984;-75
2022/09/06 00:03:01;;;;;;;;;;;;;;;23.68;43.49;100686.91;4989953;28;6788;-74
2022/09/06 00:05:29;;;;;;;;;;;;;;;23.55;44.00;100695.63;4987840;28;6968;-75
2022/09/06 00:07:58;;;;;;;;;;;;;;;23.44;45.16;100696.50;4986490;28;6943;-75
2022/09/06 00:10:24;;;;;;;;;;;;;;;23.37;45.56;100699.16;4988840;28;7011;-74
2022/09/06 00:12:50;;;;;;;;;;;;;;;23.31;45.91;100702.63;4988401;28;6800;-74
2022/09/06 00:15:16;;;;;;;;;;;;;;;23.28;46.72;100695.66;4974496;28;7037;-74
2022/09/06 00:17:43;;;;;;;;;;;;;;;23.25;47.05;100686.91;4989824;28;6999;-74
2022/09/06 00:20:10;;;;;;;;;;;;;;;23.23;46.95;100679.09;4990183;28;7149;-76
2022/09/06 00:22:37;;;;;;;;;;;;;;;23.21;47.14;100674.72;4986488;28;7021;-74
2022/09/06 00:25:05;;;;;;;;;;;;;;;23.13;47.27;100659.00;4984886;28;6975;-75
2022/09/06 00:27:31;;;;;;;;;;;;;;;23.03;47.97;100648.59;4993960;28;6796;-74
2022/09/06 00:29:57;;;;;;;;;;;;;;;22.92;48.33;100652.91;4973075;28;6962;-74
2022/09/06 00:32:23;;;;;;;;;;;;;;;22.83;49.16;100648.56;4989467;28;6776;-74
2022/09/06 00:34:49;;;;;;;;;;;;;;;22.76;49.53;100628.50;4988239;28;6800;-74
2022/09/06 00:37:14;;;;;;;;;;;;;;;22.69;50.10;100637.19;4988185;28;6780;-75
2022/09/06 00:39:40;;;;;;;;;;;;;;;22.66;50.10;100629.38;4989410;28;6805;-74
2022/09/06 00:42:11;;;;;;;;;;;;;;;22.61;50.28;100622.41;4983750;28;6778;-74
2022/09/06 00:44:38;;;;;;;;;;;;;;;22.56;50.74;100618.06;4988953;28;6804;-74
2022/09/06 00:47:06;;;;;;;;;;;;;;;22.54;51.13;100620.66;4990665;28;6808;-74
2022/09/06 00:49:45;;;;;;;;;;;;;;;22.53;51.07;100618.91;4988779;28;6962;-75
2022/09/06 00:52:15;;;;;;;;;;;;;;;22.49;51.47;100606.69;4984994;28;6959;-75
2022/09/06 00:54:42;;;;;;;;;;;;;;;22.47;51.70;100616.25;4987579;28;8107;-74
2022/09/06 00:57:08;;;;;;;;;;;;;;;22.44;51.72;100609.25;4990019;28;6792;-74
2022/09/06 00:59:39;;;;;;;;;;;;;;;22.45;51.99;100610.16;4988155;28;6976;-75
2022/09/06 01:02:07;;;;;;;;;;;;;;;22.47;51.97;100617.13;4990673;28;6800;-74
2022/09/06 01:04:36;;;;;;;;;;;;;;;22.49;52.67;100627.59;4976850;28;7398;-74
2022/09/06 01:07:34;;;;;;;;;;;;;;;22.51;52.55;100641.53;4989525;28;7349;-74
2022/09/06 01:10:37;;;;;;;;;;;;;;;22.55;52.64;100655.47;4993574;28;6792;-75
2022/09/06 01:13:50;;;;;;;;;;;;;;;22.55;52.79;100653.72;4989105;28;6831;-74
2022/09/06 01:16:50;;;;;;;;;;;;;;;22.57;53.08;100654.59;4990178;28;6808;-74
2022/09/06 01:20:00;;;;;;;;;;;;;;;22.61;53.03;100653.75;4971820;28;6808;-75
2022/09/06 01:23:10;;;;;;;;;;;;;;;22.63;53.08;100645.91;4972849;28;7292;-74
2022/09/06 01:26:25;;;;;;;;;;;;;;;22.64;53.55;100631.13;4992845;28;7034;-73
2022/09/06 01:28:52;;;;;;;;;;;;;;;22.65;53.51;100630.25;4972295;28;7038;-74
2022/09/06 01:31:37;;;;;;;;;;;;;;;22.66;53.89;100613.69;4971175;28;7441;-73
2022/09/06 01:34:06;;;;;;;;;;;;;;;22.67;54.21;100605.00;4987725;28;6811;-73
2022/09/06 01:36:45;;;;;;;;;;;;;;;22.67;54.16;100605.88;4973774;28;7341;-73
2022/09/06 01:39:27;;;;;;;;;;;;;;;22.66;54.40;100587.56;4989769;28;6800;-74
2022/09/06 01:41:55;;;;;;;;;;;;;;;22.64;54.17;100574.50;4987873;28;6895;-74
2022/09/06 01:44:24;;;;;;;;;;;;;;;22.62;54.29;100578.84;4991270;28;6965;-74
2022/09/06 01:47:39;;;;;;;;;;;;;;;22.58;54.33;100574.53;4994287;28;7010;-75
2022/09/06 01:50:33;;;;;;;;;;;;;;;22.53;54.30;100564.06;4994727;28;6812;-73
2022/09/06 01:53:08;;;;;;;;;;;;;;;22.45;54.77;100553.59;4991969;28;7256;-74
2022/09/06 01:56:00;;;;;;;;;;;;;;;22.38;54.76;100545.72;4995084;28;6792;-75
2022/09/06 01:58:38;;;;;;;;;;;;;;;22.28;55.12;100537.88;4995038;28;7079;-75
2022/09/06 02:01:36;;;;;;;;;;;;;;;22.22;55.12;100534.38;4990125;28;7214;-74
2022/09/06 02:04:29;;;;;;;;;;;;;;;22.15;54.98;100536.13;4989519;28;7190;-75
2022/09/06 02:07:07;;;;;;;;;;;;;;;22.09;55.74;100543.94;4994420;28;6998;-76
2022/09/06 02:09:42;;;;;;;;;;;;;;;22.05;55.17;100546.53;4992040;28;7569;-74
2022/09/06 02:12:12;;;;;;;;;;;;;;;22.02;55.58;100545.66;4989909;28;6951;-75
2022/09/06 02:14:53;;;;;;;;;;;;;;;21.97;55.42;100540.41;4994455;28;7093;-74
2022/09/06 02:17:28;;;;;;;;;;;;;;;21.92;55.93;100544.75;4993339;28;6956;-74
2022/09/06 02:20:06;;;;;;;;;;;;;;;21.86;55.65;100540.38;4989115;28;6966;-74
2022/09/06 02:22:40;;;;;;;;;;;;;;;21.83;56.02;100542.13;4995692;28;7169;-75
2022/09/06 02:25:12;;;;;;;;;;;;;;;21.77;56.12;100537.72;4989902;28;7051;-74
2022/09/06 02:27:38;;;;;;;;;;;;;;;21.71;56.07;100530.75;4974504;28;6999;-76
2022/09/06 02:30:05;;;;;;;;;;;;;;;21.66;55.98;100529.84;4991224;28;6796;-74
2022/09/06 02:32:49;;;;;;;;;;;;;;;21.61;56.20;100531.56;4991636;28;6804;-75
2022/09/06 02:35:16;;;;;;;;;;;;;;;21.57;56.38;100527.19;4992325;28;6816;-74
2022/09/06 02:37:43;;;;;;;;;;;;;;;21.52;56.39;100521.97;4987547;28;7158;-75
2022/09/06 02:40:10;;;;;;;;;;;;;;;21.48;56.53;100523.69;4972587;28;7130;-74
2022/09/06 02:42:38;;;;;;;;;;;;;;;21.44;56.55;100516.72;4989389;28;7613;-73
2022/09/06 02:45:04;;;;;;;;;;;;;;;21.39;56.80;100515.81;4990683;28;7142;-74
2022/09/06 02:47:30;;;;;;;;;;;;;;;21.35;56.79;100522.75;4990933;28;6792;-74
2022/09/06 02:49:55;;;;;;;;;;;;;;;21.32;56.94;100514.03;4989266;28;7300;-74
2022/09/06 02:52:21;;;;;;;;;;;;;;;21.29;56.77;100498.38;4985852;28;6941;-76
2022/09/06 02:54:47;;;;;;;;;;;;;;;21.26;57.16;100504.44;4993406;28;6931;-74
2022/09/06 02:57:13;;;;;;;;;;;;;;;21.23;56.92;100497.47;4995248;28;8091;-75
2022/09/06 02:59:38;;;;;;;;;;;;;;;21.21;56.99;100495.75;4991384;28;7026;-74
2022/09/06 03:02:04;;;;;;;;;;;;;;;21.20;56.82;100492.25;4990454;28;6788;-75
2022/09/06 03:04:30;;;;;;;;;;;;;;;21.19;57.10;100487.03;4977537;28;6981;-75
2022/09/06 03:06:56;;;;;;;;;;;;;;;21.18;57.29;100495.72;4991181;28;7076;-76
2022/09/06 03:09:21;;;;;;;;;;;;;;;21.14;57.23;100496.56;4992398;28;7382;-76
2022/09/06 03:11:47;;;;;;;;;;;;;;;21.13;57.18;100494.81;4990233;28;6816;-76
2022/09/06 03:14:15;;;;;;;;;;;;;;;21.10;57.28;100485.25;4988583;28;6856;-76
2022/09/06 03:16:42;;;;;;;;;;;;;;;21.07;57.47;100493.06;4991635;28;7160;-75
2022/09/06 03:19:07;;;;;;;;;;;;;;;21.04;57.07;100487.81;4992669;28;6876;-76
2022/09/06 03:21:33;;;;;;;;;;;;;;;21.02;57.22;100492.13;4991561;28;7219;-76
2022/09/06 03:23:59;;;;;;;;;;;;;;;21.00;57.60;100491.28;4990207;28;6787;-76
2022/09/06 03:26:24;;;;;;;;;;;;;;;20.97;57.86;100499.06;4989694;28;6795;-76
2022/09/06 03:28:50;;;;;;;;;;;;;;;20.93;57.79;100499.03;4991473;28;6930;-75
2022/09/06 03:31:16;;;;;;;;;;;;;;;20.89;57.92;100499.88;4974928;28;7231;-76
2022/09/06 03:33:41;;;;;;;;;;;;;;;20.85;57.77;100492.88;4991951;28;6800;-76
2022/09/06 03:36:07;;;;;;;;;;;;;;;20.82;57.84;100503.31;4990567;28;6954;-76
2022/09/06 03:38:33;;;;;;;;;;;;;;;20.78;57.69;100502.38;4990180;28;6994;-76
2022/09/06 03:40:59;;;;;;;;;;;;;;;20.76;57.70;100509.31;4991783;28;7166;-76
2022/09/06 03:43:26;;;;;;;;;;;;;;;20.74;57.53;100510.16;4986647;28;6780;-75
2022/09/06 03:45:56;;;;;;;;;;;;;;;20.71;57.85;100510.97;4973862;28;6975;-76
2022/09/06 03:48:24;;;;;;;;;;;;;;;20.70;57.78;100518.81;4989101;28;6823;-76
2022/09/06 03:50:53;;;;;;;;;;;;;;;20.69;57.93;100520.53;4972947;28;6784;-76
2022/09/06 03:53:20;;;;;;;;;;;;;;;20.67;58.31;100523.13;4969493;28;7148;-75
2022/09/06 03:55:52;;;;;;;;;;;;;;;20.67;58.32;100530.06;4990022;28;6983;-76
2022/09/06 03:58:21;;;;;;;;;;;;;;;20.66;58.19;100510.09;4988947;28;6823;-76
2022/09/06 04:00:47;;;;;;;;;;;;;;;20.65;58.58;100526.59;4987846;28;7877;-75
2022/09/06 04:03:13;;;;;;;;;;;;;;;20.65;59.08;100527.44;4989533;28;7853;-75
2022/09/06 04:05:39;;;;;;;;;;;;;;;20.66;59.16;100518.75;4988073;28;6802;-76
2022/09/06 04:08:04;;;;;;;;;;;;;;;20.66;59.18;100516.16;4991424;28;6847;-76
2022/09/06 04:10:31;;;;;;;;;;;;;;;20.68;59.44;100513.56;4989114;28;6783;-76
2022/09/06 04:12:57;;;;;;;;;;;;;;;20.67;59.50;100510.13;4985911;28;8887;-76
2022/09/06 04:15:22;;;;;;;;;;;;;;;20.67;59.30;100515.31;4986464;28;6776;-76
2022/09/06 04:17:48;;;;;;;;;;;;;;;20.67;59.14;100510.13;4968285;28;6884;-76
2022/09/06 04:20:15;;;;;;;;;;;;;;;20.67;59.16;100501.41;4989402;28;6852;-76
2022/09/06 04:22:41;;;;;;;;;;;;;;;20.67;59.33;100504.91;4966759;28;7324;-76
2022/09/06 04:25:07;;;;;;;;;;;;;;;20.68;58.87;100510.97;4988681;28;7248;-76
2022/09/06 04:27:33;;;;;;;;;;;;;;;20.67;58.90;100510.13;4991018;28;7772;-76
2022/09/06 04:29:59;;;;;;;;;;;;;;;20.67;58.98;100504.91;4986914;28;8140;-76
2022/09/06 04:32:25;;;;;;;;;;;;;;;20.69;59.11;100507.50;4989157;28;6963;-76
2022/09/06 04:34:50;;;;;;;;;;;;;;;20.69;58.85;100510.09;4989487;28;7141;-76
2022/09/06 04:37:18;;;;;;;;;;;;;;;20.71;58.95;100520.53;4972058;28;6953;-76
2022/09/06 04:39:46;;;;;;;;;;;;;;;20.70;58.85;100508.41;4991199;28;6804;-75
2022/09/06 04:42:12;;;;;;;;;;;;;;;20.72;59.14;100512.75;4972735;28;7179;-76
2022/09/06 04:44:37;;;;;;;;;;;;;;;20.72;58.96;100511.88;4990247;28;6784;-75
2022/09/06 04:47:13;;;;;;;;;;;;;;;20.73;58.96;100511.00;4974262;28;7019;-75
2022/09/06 04:49:43;;;;;;;;;;;;;;;20.72;58.65;100510.16;4991622;28;7206;-75
2022/09/06 04:52:10;;;;;;;;;;;;;;;20.72;58.48;100517.97;4990390;28;6850;-75
2022/09/06 04:54:36;;;;;;;;;;;;;;;20.72;58.63;100511.88;4973737;28;7143;-76
2022/09/06 04:57:02;;;;;;;;;;;;;;;20.71;58.74;100499.72;4975419;28;6856;-76
2022/09/06 04:59:28;;;;;;;;;;;;;;;20.69;58.64;100507.50;4992369;28;7206;-75
2022/09/06 05:01:54;;;;;;;;;;;;;;;20.69;59.05;100502.28;4972055;28;6772;-75
2022/09/06 05:04:19;;;;;;;;;;;;;;;20.67;58.60;100498.81;4988686;28;6780;-75
2022/09/06 05:06:45;;;;;;;;;;;;;;;20.66;58.81;100503.13;4992170;28;7251;-75
2022/09/06 05:09:10;;;;;;;;;;;;;;;20.66;58.83;100505.75;4991056;28;7145;-76
2022/09/06 05:11:36;;;;;;;;;;;;;;;20.66;59.11;100508.34;4989734;28;6800;-76
2022/09/06 05:14:02;;;;;;;;;;;;;;;20.65;58.96;100511.81;4974154;28;7267;-76
2022/09/06 05:16:30;;;;;;;;;;;;;;;20.65;58.96;100510.97;4990178;28;6941;-75
2022/09/06 05:18:56;;;;;;;;;;;;;;;20.66;58.79;100507.50;4989400;28;6796;-76
2022/09/06 05:21:21;;;;;;;;;;;;;;;20.66;58.94;100508.34;4988563;28;6796;-76
2022/09/06 05:23:47;;;;;;;;;;;;;;;20.68;58.93;100508.38;4985800;28;6823;-76
2022/09/06 05:26:13;;;;;;;;;;;;;;;20.70;59.15;100503.19;4987376;28;6780;-75
2022/09/06 05:28:38;;;;;;;;;;;;;;;20.73;58.89;100500.59;4990609;28;7027;-76
2022/09/06 05:31:10;;;;;;;;;;;;;;;20.74;59.23;100499.72;4972809;28;6999;-75
2022/09/06 05:33:36;;;;;;;;;;;;;;;20.76;58.37;100501.50;4989323;28;6981;-75
2022/09/06 05:36:04;;;;;;;;;;;;;;;20.78;59.13;100501.50;4971069;28;7015;-75
2022/09/06 05:38:30;;;;;;;;;;;;;;;20.79;58.97;100503.25;4969693;28;6989;-75
2022/09/06 05:40:56;;;;;;;;;;;;;;;20.82;59.28;100498.09;4987336;28;6947;-76
2022/09/06 05:43:21;;;;;;;;;;;;;;;20.86;58.90;100499.00;4969401;28;6955;-76
2022/09/06 05:45:47;;;;;;;;;;;;;;;20.89;59.14;100499.88;4970115;28;7217;-76
2022/09/06 05:48:13;;;;;;;;;;;;;;;20.94;59.30;100503.38;4985795;28;6929;-76
2022/09/06 05:50:38;;;;;;;;;;;;;;;21.00;58.87;100499.09;4987717;28;6940;-76
2022/09/06 05:53:04;;;;;;;;;;;;;;;21.03;59.13;100507.78;4986568;28;6835;-76
2022/09/06 05:55:29;;;;;;;;;;;;;;;21.11;59.02;100501.78;4988083;28;8049;-76
2022/09/06 05:57:55;;;;;;;;;;;;;;;21.15;59.05;100499.19;4989859;28;7027;-75
2022/09/06 06:00:21;;;;;;;;;;;;;;;21.21;59.05;100507.03;4988668;28;7381;-75
2022/09/06 06:02:48;;;;;;;;;;;;;;;21.26;59.10;100506.19;4988027;28;6764;-76
2022/09/06 06:05:14;;;;;;;;;;;;;;;21.30;58.92;100506.22;4994398;28;6856;-75
2022/09/06 06:07:40;;;;;;;;;;;;;;;21.35;58.91;100501.88;4990147;28;6788;-75
2022/09/06 06:10:06;;;;;;;;;;;;;;;21.41;58.72;100501.03;4992321;28;7189;-75
2022/09/06 06:12:32;;;;;;;;;;;;;;;21.47;58.95;100503.69;4973530;28;7220;-76
2022/09/06 06:14:57;;;;;;;;;;;;;;;21.54;59.00;100498.50;4990280;28;6851;-75
2022/09/06 06:17:23;;;;;;;;;;;;;;;21.62;59.26;100512.44;4988388;28;6852;-75
2022/09/06 06:19:49;;;;;;;;;;;;;;;21.67;58.89;100497.72;4990936;28;6914;-75
2022/09/06 06:22:14;;;;;;;;;;;;;;;21.74;59.04;100496.88;4990758;28;6868;-75
2022/09/06 06:24:40;;;;;;;;;;;;;;;21.83;58.92;100495.16;4988575;28;6783;-75
2022/09/06 06:27:05;;;;;;;;;;;;;;;21.90;59.09;100503.00;4990437;28;6860;-75
2022/09/06 06:29:31;;;;;;;;;;;;;;;21.99;59.22;100502.16;4988214;28;7844;-75
2022/09/06 06:31:57;;;;;;;;;;;;;;;22.05;59.01;100496.97;4987170;28;7837;-75
2022/09/06 06:34:22;;;;;;;;;;;;;;;22.13;58.66;100499.56;4991109;28;6973;-75
2022/09/06 06:36:48;;;;;;;;;;;;;;;22.20;58.60;100495.22;4989727;28;7135;-75
2022/09/06 06:39:14;;;;;;;;;;;;;;;22.28;58.79;100509.16;4991015;28;6942;-75
2022/09/06 06:41:39;;;;;;;;;;;;;;;22.34;58.53;100498.75;4993714;28;6860;-75
2022/09/06 06:44:05;;;;;;;;;;;;;;;22.42;58.34;100503.09;4989761;28;6852;-75
2022/09/06 06:46:36;;;;;;;;;;;;;;;22.48;58.74;100503.09;4990523;28;7251;-75
2022/09/06 06:49:03;;;;;;;;;;;;;;;22.56;58.24;100498.78;4992149;28;7025;-75
2022/09/06 06:51:31;;;;;;;;;;;;;;;22.63;58.23;100493.56;4990265;28;6868;-75
2022/09/06 06:53:57;;;;;;;;;;;;;;;22.70;58.31;100495.31;4987785;28;7054;-75
2022/09/06 06:56:41;;;;;;;;;;;;;;;22.81;58.27;100495.28;4988167;28;7230;-75
2022/09/06 06:59:07;;;;;;;;;;;;;;;22.89;58.08;100496.13;4990920;28;6974;-75
2022/09/06 07:01:35;;;;;;;;;;;;;;;22.97;58.05;100493.50;4992488;28;6839;-75
2022/09/06 07:04:00;;;;;;;;;;;;;;;23.06;57.90;100497.84;4990497;28;7330;-75
2022/09/06 07:06:27;;;;;;;;;;;;;;;23.13;57.83;100492.59;4992209;28;6797;-76
2022/09/06 07:08:58;;;;;;;;;;;;;;;23.24;57.50;100497.81;4993693;28;6868;-75
2022/09/06 07:11:24;;;;;;;;;;;;;;;23.34;57.37;100497.81;4990734;28;6870;-75
2022/09/06 07:13:50;;;;;;;;;;;;;;;23.42;57.32;100491.66;4975019;28;7188;-75
2022/09/06 07:16:20;;;;;;;;;;;;;;;23.52;57.10;100483.78;4988038;28;7220;-75
2022/09/06 07:18:49;;;;;;;;;;;;;;;23.62;56.91;100492.47;4990635;28;7130;-75
2022/09/06 07:21:18;;;;;;;;;;;;;;;23.71;56.84;100488.06;4992287;28;6804;-75
2022/09/06 07:23:44;;;;;;;;;;;;;;;23.81;56.72;100473.19;4993822;28;6972;-75
2022/09/06 07:26:18;;;;;;;;;;;;;;;23.90;56.67;100481.84;4993427;28;7274;-75
2022/09/06 07:28:45;;;;;;;;;;;;;;;23.99;56.17;100474.81;4993621;28;6808;-75
2022/09/06 07:31:11;;;;;;;;;;;;;;;24.07;56.22;100473.94;4976566;28;6876;-75
2022/09/06 07:33:38;;;;;;;;;;;;;;;24.16;55.42;100478.22;4988564;28;7860;-75
2022/09/06 07:36:07;;;;;;;;;;;;;;;24.24;56.10;100476.41;4989816;28;6788;-75
2022/09/06 07:38:34;;;;;;;;;;;;;;;24.31;55.34;100479.84;4992215;28;6808;-75
2022/09/06 07:41:04;;;;;;;;;;;;;;;24.40;55.44;100487.63;4990531;28;6815;-75
2022/09/06 07:43:30;;;;;;;;;;;;;;;24.50;55.11;100493.69;4990505;28;7199;-75
2022/09/06 07:46:12;;;;;;;;;;;;;;;24.60;54.73;100487.47;4959157;28;6980;-75
2022/09/06 07:48:40;;;;;;;;;;;;;;;24.69;54.78;100490.03;4990829;28;6863;-75
2022/09/06 07:51:17;;;;;;;;;;;;;;;24.81;54.64;100482.94;4987543;28;6804;-75
2022/09/06 07:53:50;;;;;;;;;;;;;;;24.90;54.49;100485.47;4993010;28;6800;-75
2022/09/06 07:56:20;;;;;;;;;;;;;;;25.00;54.71;100486.22;4990475;28;6996;-75
2022/09/06 07:58:46;;;;;;;;;;;;;;;25.11;54.25;100488.75;4995063;28;6871;-75
2022/09/06 08:01:28;;;;;;;;;;;;;;;25.23;54.29;100490.38;4987172;28;7356;-75
2022/09/06 08:03:57;;;;;;;;;;;;;;;25.34;53.82;100483.25;4967466;28;7525;-75
2022/09/06 08:06:24;;;;;;;;;;;;;;;25.43;53.77;100479.63;4992936;28;6801;-75
2022/09/06 08:08:50;;;;;;;;;;;;;;;25.54;53.37;100474.28;4974505;28;7028;-75
2022/09/06 08:11:16;;;;;;;;;;;;;;;25.66;53.03;100473.25;4989021;28;7715;-75
2022/09/06 08:13:42;;;;;;;;;;;;;;;25.76;52.78;100482.75;4982909;28;7007;-75
2022/09/06 08:16:15;;;;;;;;;;;;;;;25.88;52.85;100478.22;4991190;28;7027;-75
2022/09/06 08:18:42;;;;;;;;;;;;;;;25.99;52.40;100467.56;4987610;28;6880;-75
2022/09/06 08:21:11;;;;;;;;;;;;;;;26.10;52.02;100468.25;4987345;28;6987;-75
2022/09/06 08:23:41;;;;;;;;;;;;;;;26.23;51.74;100470.72;4987266;28;7372;-75
2022/09/06 08:26:07;;;;;;;;;;;;;;;26.34;51.44;100472.28;4987951;28;6808;-75
2022/09/06 08:28:33;;;;;;;;;;;;;;;26.45;50.84;100466.81;4986317;28;6796;-75
2022/09/06 08:31:16;;;;;;;;;;;;;;;26.58;50.52;100475.38;4987393;28;6848;-75
2022/09/06 08:33:43;;;;;;;;;;;;;;;26.71;50.57;100477.78;4974942;28;6953;-75
2022/09/06 08:36:10;;;;;;;;;;;;;;;26.83;50.29;100480.19;4972919;28;7406;-75
2022/09/06 08:38:36;;;;;;;;;;;;;;;26.94;49.65;100472.13;4989603;28;6800;-75
2022/09/06 08:41:26;;;;;;;;;;;;;;;27.07;49.15;100470.13;4991056;28;6796;-75
2022/09/06 08:43:59;;;;;;;;;;;;;;;27.17;49.05;100469.03;4975219;28;7012;-75
2022/09/06 08:46:48;;;;;;;;;;;;;;;27.29;48.78;100475.81;4992388;28;6864;-75
2022/09/06 08:49:14;;;;;;;;;;;;;;;27.39;48.53;100470.38;4988199;28;6974;-75
2022/09/06 08:52:16;;;;;;;;;;;;;;;27.49;48.25;100465.78;4988197;28;6832;-75
2022/09/06 08:55:22;;;;;;;;;;;;;;;27.62;47.45;100463.75;4986233;28;6804;-75
2022/09/06 08:58:13;;;;;;;;;;;;;;;27.74;47.30;100452.97;4960670;28;7358;-75
2022/09/06 09:01:04;;;;;;;;;;;;;;;27.85;46.97;100445.69;4970770;28;7295;-75
2022/09/06 09:03:35;;;;;;;;;;;;;;;27.99;46.25;100436.59;4973134;28;7023;-75
2022/09/06 09:06:04;;;;;;;;;;;;;;;28.11;45.98;100435.44;4988528;28;7022;-75
2022/09/06 09:09:06;;;;;;;;;;;;;;;28.24;46.02;100428.97;4989904;28;6872;-75
2022/09/06 09:11:34;;;;;;;;;;;;;;;28.33;45.32;100422.63;4986200;28;6811;-75
2022/09/06 09:14:26;;;;;;;;;;;;;;;28.47;44.29;100437.19;4974602;28;7083;-75
2022/09/06 09:16:58;;;;;;;;;;;;;;;28.57;44.06;100435.19;4974295;28;6970;-75
2022/09/06 09:19:24;;;;;;;;;;;;;;;28.67;44.48;100434.88;4990289;28;7222;-75
2022/09/06 09:21:49;;;;;;;;;;;;;;;28.80;43.82;100439.84;4973056;28;7228;-75
2022/09/06 09:24:15;;;;;;;;;;;;;;;28.93;43.95;100435.97;4990097;28;6772;-75
2022/09/06 09:26:58;;;;;;;;;;;;;;;29.08;43.69;100439.94;4988037;28;6923;-76
2022/09/06 09:29:24;;;;;;;;;;;;;;;29.21;42.95;100443.09;4988701;28;7204;-75
2022/09/06 09:31:53;;;;;;;;;;;;;;;29.33;43.03;100438.38;4987416;28;6772;-75
2022/09/06 09:34:38;;;;;;;;;;;;;;;29.45;42.18;100432.75;4982926;28;7014;-75
2022/09/06 09:37:28;;;;;;;;;;;;;;;29.59;42.14;100428.84;4970442;28;7177;-75
2022/09/06 09:39:56;;;;;;;;;;;;;;;29.71;41.91;100428.44;4986148;28;6803;-76
2022/09/06 09:42:35;;;;;;;;;;;;;;;29.86;42.22;100432.38;4989972;28;6776;-76
2022/09/06 09:45:23;;;;;;;;;;;;;;;30.00;41.22;100431.06;4988369;28;6812;-75
2022/09/06 09:47:49;;;;;;;;;;;;;;;30.16;41.39;100428.81;4989370;28;6971;-76
2022/09/06 09:50:33;;;;;;;;;;;;;;;30.31;40.58;100432.72;4988769;28;6788;-75
2022/09/06 09:53:12;;;;;;;;;;;;;;;30.45;40.77;100432.25;4984776;28;6792;-75
2022/09/06 09:55:40;;;;;;;;;;;;;;;30.60;40.48;100433.47;4987687;28;7056;-76
2022/09/06 09:58:20;;;;;;;;;;;;;;;30.82;40.54;100441.53;4973685;28;7308;-76
2022/09/06 10:00:46;;;;;;;;;;;;;;;31.14;40.20;100442.13;4988725;28;7185;-76
2022/09/06 10:03:16;;;;;;;;;;;;;;;31.77;39.81;100423.84;4989106;28;7003;-76
2022/09/06 10:05:56;;;;;;;;;;;;;;;32.87;38.92;100431.66;4970551;28;7142;-76
2022/09/06 10:08:25;;;;;;;;;;;;;;;34.07;37.71;100421.63;4992671;28;7777;-74
2022/09/06 10:10:51;;;;;;;;;;;;;;;35.23;36.10;100422.69;4994900;28;6796;-75
2022/09/06 10:13:22;;;;;;;;;;;;;;;36.31;34.80;100414.78;4995191;28;6788;-73
2022/09/06 10:15:51;;;;;;;;;;;;;;;37.24;33.27;100406.44;4974430;28;8271;-75
2022/09/06 10:18:36;;;;;;;;;;;;;;;38.17;32.29;100406.66;4990910;28;6792;-74
2022/09/06 10:21:14;;;;;;;;;;;;;;;39.07;31.09;100404.88;4988501;28;6996;-74
2022/09/06 10:24:05;;;;;;;;;;;;;;;39.88;29.94;100401.69;4990869;28;7243;-74
2022/09/06 10:26:46;;;;;;;;;;;;;;;40.63;28.80;100400.38;4993047;28;6808;-74
2022/09/06 10:29:13;;;;;;;;;;;;;;;41.18;27.96;100404.09;4996370;28;6792;-75
2022/09/06 10:31:38;;;;;;;;;;;;;;;41.63;27.35;100403.97;4972295;28;7728;-74
2022/09/06 10:34:29;;;;;;;;;;;;;;;42.08;26.48;100395.84;4993618;28;6788;-74
2022/09/06 10:37:04;;;;;;;;;;;;;;;42.63;26.13;100392.00;4977940;28;7145;-74
2022/09/06 10:39:55;;;;;;;;;;;;;;;43.18;25.38;100397.00;4993328;28;7291;-75
2022/09/06 10:42:51;;;;;;;;;;;;;;;43.60;24.55;100395.88;4992855;28;6784;-74
2022/09/06 10:46:08;;;;;;;;;;;;;;;43.98;23.84;100391.44;4989884;28;6831;-75
2022/09/06 10:48:46;;;;;;;;;;;;;;;44.38;22.86;100397.63;4931885;28;6973;-74
2022/09/06 10:51:31;;;;;;;;;;;;;;;44.57;22.27;100406.66;4966669;28;7006;-74
2022/09/06 10:54:07;;;;;;;;;;;;;;;44.69;21.70;100401.06;4990261;28;7211;-73
2022/09/06 10:56:54;;;;;;;;;;;;;;;44.65;21.40;100408.63;4991895;28;6812;-74
2022/09/06 10:59:30;;;;;;;;;;;;;;;44.49;21.32;100409.22;4991603;28;7196;-74
2022/09/06 11:02:42;;;;;;;;;;;;;;;44.34;21.05;100407.03;4992644;28;6988;-74
2022/09/06 11:05:19;;;;;;;;;;;;;;;44.19;20.81;100406.66;4990315;28;6994;-74
2022/09/06 11:08:23;;;;;;;;;;;;;;;44.33;21.03;100407.16;4979260;28;6808;-74
2022/09/06 11:10:54;;;;;;;;;;;;;;;44.69;20.84;100414.56;4975674;28;6804;-74
2022/09/06 11:13:25;;;;;;;;;;;;;;;44.88;20.64;100414.47;4990978;28;6859;-74
2022/09/06 11:16:27;;;;;;;;;;;;;;;45.01;20.04;100411.44;4992119;28;7177;-75
2022/09/06 11:19:16;;;;;;;;;;;;;;;45.19;19.45;100411.44;4968947;28;6998;-74
2022/09/06 11:22:32;;;;;;;;;;;;;;;45.33;19.13;100411.91;4974097;28;7166;-74
2022/09/06 11:25:22;;;;;;;;;;;;;;;45.41;18.68;100403.06;4992696;28;7059;-75
2022/09/06 11:27:55;;;;;;;;;;;;;;;45.43;18.63;100412.72;4992293;28;6886;-74
2022/09/06 11:30:24;;;;;;;;;;;;;;;45.51;18.01;100408.41;4988620;28;6950;-74
2022/09/06 11:33:20;;;;;;;;;;;;;;;45.71;17.82;100415.31;4990951;28;7247;-75
2022/09/06 11:35:46;;;;;;;;;;;;;;;45.82;17.25;100416.09;4974848;28;7137;-74
2022/09/06 11:38:15;;;;;;;;;;;;;;;45.81;17.08;100415.25;4988898;28;6996;-75
2022/09/06 11:40:50;;;;;;;;;;;;;;;45.82;17.21;100416.94;4973280;28;6984;-75
2022/09/06 11:43:46;;;;;;;;;;;;;;;45.56;17.17;100406.91;4991226;28;6803;-74
2022/09/06 11:46:33;;;;;;;;;;;;;;;45.19;17.80;100407.91;4990778;28;7980;-74
2022/09/06 11:49:31;;;;;;;;;;;;;;;45.02;17.94;100415.00;4994892;28;6781;-75
2022/09/06 11:51:57;;;;;;;;;;;;;;;45.06;17.89;100408.28;4987526;28;7425;-75
2022/09/06 11:54:43;;;;;;;;;;;;;;;45.22;17.77;100399.47;4995504;28;7180;-74
2022/09/06 11:57:25;;;;;;;;;;;;;;;45.52;17.55;100400.09;4991598;28;7182;-75
2022/09/06 12:00:07;;;;;;;;;;;;;;;45.80;17.17;100407.31;4989567;28;6800;-74
2022/09/06 12:02:40;;;;;;;;;;;;;;;45.84;16.98;100408.66;4989327;28;7217;-73
2022/09/06 12:05:08;;;;;;;;;;;;;;;45.79;16.64;100395.63;4984923;28;8590;-75
2022/09/06 12:08:33;;;;;;;;;;;;;;;45.74;16.06;100392.53;4990687;28;6796;-74
2022/09/06 12:11:03;;;;;;;;;;;;;;;45.72;16.01;100403.50;4966934;28;6987;-74
2022/09/06 12:13:38;;;;;;;;;;;;;;;45.64;15.73;100398.00;4965908;28;7250;-74
2022/09/06 12:16:05;;;;;;;;;;;;;;;45.41;15.54;100403.06;4990144;28;6812;-74
2022/09/06 12:18:46;;;;;;;;;;;;;;;45.28;15.73;100398.88;4994091;28;6823;-74
2022/09/06 12:21:33;;;;;;;;;;;;;;;45.24;15.41;100399.31;4987435;28;6863;-75
2022/09/06 12:24:00;;;;;;;;;;;;;;;45.29;15.49;100397.00;4992409;28;7176;-74
2022/09/06 12:26:51;;;;;;;;;;;;;;;45.37;15.37;100391.66;4974242;28;6972;-75
2022/09/06 12:29:27;;;;;;;;;;;;;;;45.42;15.28;100397.50;4992982;28;6978;-74
2022/09/06 12:31:56;;;;;;;;;;;;;;;45.40;15.44;100395.94;4989401;28;7301;-75
2022/09/06 12:34:30;;;;;;;;;;;;;;;45.24;15.45;100397.44;4988785;28;6803;-74
2022/09/06 12:37:02;;;;;;;;;;;;;;;45.06;15.77;100386.66;4969178;28;6828;-74
2022/09/06 12:39:28;;;;;;;;;;;;;;;44.81;15.61;100394.44;4975628;28;6855;-74
2022/09/06 12:42:04;;;;;;;;;;;;;;;44.56;16.05;100388.72;4971040;28;7365;-74
2022/09/06 12:44:51;;;;;;;;;;;;;;;44.52;16.26;100376.50;4991582;28;6874;-74
2022/09/06 12:47:31;;;;;;;;;;;;;;;44.60;15.85;100376.66;4989101;28;7027;-74
2022/09/06 12:50:08;;;;;;;;;;;;;;;44.56;15.24;100377.94;4987244;28;6974;-74
2022/09/06 12:52:54;;;;;;;;;;;;;;;44.37;15.21;100374.31;4991432;28;7142;-74
2022/09/06 12:55:27;;;;;;;;;;;;;;;44.19;15.17;100382.34;4973003;28;7682;-74
2022/09/06 12:57:57;;;;;;;;;;;;;;;44.11;15.07;100383.03;4991398;28;7041;-74
2022/09/06 13:00:30;;;;;;;;;;;;;;;44.06;15.16;100377.25;4973833;28;6792;-73
2022/09/06 13:03:25;;;;;;;;;;;;;;;43.93;15.20;100374.88;4977709;28;6810;-74
2022/09/06 13:05:54;;;;;;;;;;;;;;;43.88;15.44;100374.44;4992857;28;6811;-74
2022/09/06 13:08:45;;;;;;;;;;;;;;;43.93;15.53;100371.31;4974085;28;6999;-74
2022/09/06 13:11:16;;;;;;;;;;;;;;;43.98;15.66;100374.44;4988118;28;6845;-74
2022/09/06 13:13:52;;;;;;;;;;;;;;;44.10;15.46;100362.44;4966082;28;6920;-74
2022/09/06 13:16:31;;;;;;;;;;;;;;;44.17;15.57;100362.72;4968847;28;7124;-74
2022/09/06 13:19:33;;;;;;;;;;;;;;;44.21;15.94;100356.06;4970604;28;7015;-74